Time;durP1;ratioP1;P1;durP2;ratioP2;P2;SDS_P1;SDS_P2;PMS_P1;PMS_P2;Temp;Humidity;BMP_temperature;BMP_pressure;BME280_temperature;BME280_humidity;BME280_pressure;Samples;Min_cycle;Max_cycle;Signal;HPM_P1;HPM_P2
2022/01/18 00:01:25;;;;;;;30.08;5.50;;;6.00;99.90;;;;;;5095340;28;20052;-76
2022/01/18 00:03:51;;;;;;;28.50;5.18;;;5.90;99.90;;;;;;5066512;28;20037;-75
2022/01/18 00:06:17;;;;;;;31.05;5.28;;;5.90;99.90;;;;;;5063258;28;20054;-75
2022/01/18 00:08:43;;;;;;;35.50;5.80;;;5.90;99.90;;;;;;5047395;28;20130;-76
2022/01/18 00:11:09;;;;;;;29.88;5.20;;;5.80;99.90;;;;;;5051147;28;20045;-76
2022/01/18 00:13:41;;;;;;;24.52;4.50;;;5.80;99.90;;;;;;5052615;28;20040;-75
2022/01/18 00:16:22;;;;;;;37.78;6.05;;;5.70;99.90;;;;;;5047738;28;20107;-76
2022/01/18 00:18:49;;;;;;;28.73;5.07;;;5.60;99.90;;;;;;5054964;28;20068;-81
2022/01/18 00:21:28;;;;;;;30.35;5.03;;;5.50;99.90;;;;;;5055780;28;20090;-81
2022/01/18 00:23:57;;;;;;;33.20;5.40;;;5.50;99.90;;;;;;5072158;28;20037;-81
2022/01/18 00:26:27;;;;;;;29.23;5.45;;;5.50;99.90;;;;;;5052253;28;20532;-76
2022/01/18 00:28:58;;;;;;;29.33;5.22;;;5.60;99.90;;;;;;5058701;28;20041;-76
2022/01/18 00:34:10;;;;;;;38.65;5.72;;;5.50;99.90;;;;;;5061746;28;20067;-75
2022/01/18 00:36:39;;;;;;;32.65;5.20;;;5.50;99.90;;;;;;5045027;28;20116;-75
2022/01/18 00:39:08;;;;;;;32.63;5.80;;;5.50;99.90;;;;;;5052131;28;20039;-75
2022/01/18 00:41:34;;;;;;;33.45;5.30;;;5.40;99.90;;;;;;5071811;28;20076;-75
2022/01/18 00:44:00;;;;;;;30.20;4.78;;;5.40;99.90;;;;;;5074554;28;20115;-81
2022/01/18 00:46:26;;;;;;;28.15;4.55;;;5.30;99.90;;;;;;5058464;28;20113;-82
2022/01/18 00:48:55;;;;;;;36.00;4.45;;;5.40;99.90;;;;;;5075136;28;20044;-81
2022/01/18 00:51:22;;;;;;;29.85;5.10;;;5.40;99.90;;;;;;5072521;28;20040;-81
2022/01/18 00:53:47;;;;;;;;;;;5.40;99.90;;;;;;5075587;28;20134;-81
2022/01/18 00:58:41;;;;;;;28.58;4.63;;;5.40;99.90;;;;;;5058161;28;20040;-81
2022/01/18 01:01:07;;;;;;;30.00;5.63;;;5.30;99.90;;;;;;5074391;28;20043;-81
2022/01/18 01:03:34;;;;;;;30.67;5.00;;;5.50;99.90;;;;;;5074416;28;20028;-81
2022/01/18 01:06:01;;;;;;;27.70;5.60;;;5.40;99.90;;;;;;5074464;28;20044;-82
2022/01/18 01:08:27;;;;;;;30.08;5.35;;;5.40;99.90;;;;;;5075062;28;20033;-83
2022/01/18 01:10:53;;;;;;;36.95;5.43;;;5.40;99.90;;;;;;5075243;28;20036;-80
2022/01/18 01:13:20;;;;;;;27.73;4.53;;;5.40;99.90;;;;;;5074603;28;20040;-80
2022/01/18 01:45:04;;;;;;;27.25;4.45;;;5.30;99.90;;;;;;5069166;28;20400;-75
2022/01/18 01:47:37;;;;;;;17.08;3.40;;;5.30;99.90;;;;;;5066439;28;20404;-75
2022/01/18 01:50:18;;;;;;;23.10;3.75;;;5.30;99.90;;;;;;5048740;28;20076;-75
2022/01/18 01:52:44;;;;;;;25.05;4.65;;;5.30;99.90;;;;;;5069624;28;20518;-75
2022/01/18 01:55:11;;;;;;;34.40;5.50;;;5.40;99.90;;;;;;5050017;28;20046;-76
2022/01/18 01:57:37;;;;;;;27.15;5.45;;;5.40;99.90;;;;;;5033773;28;20063;-76
2022/01/18 02:00:10;;;;;;;24.42;4.07;;;5.40;99.90;;;;;;5068043;28;20686;-75
2022/01/18 02:02:36;;;;;;;22.23;4.05;;;5.40;99.90;;;;;;5086416;28;20041;-75
2022/01/18 02:05:02;;;;;;;19.63;3.85;;;5.30;99.90;;;;;;5072100;28;20135;-75
2022/01/18 02:07:27;;;;;;;22.45;3.80;;;5.50;99.90;;;;;;5053674;28;20128;-75
2022/01/18 02:09:53;;;;;;;19.30;3.92;;;5.50;99.90;;;;;;5046669;28;20102;-75
2022/01/18 02:12:19;;;;;;;19.80;4.18;;;5.60;99.90;;;;;;5068814;28;20119;-75
2022/01/18 02:14:51;;;;;;;25.10;4.40;;;5.60;99.90;;;;;;5054159;28;20052;-75
2022/01/18 02:22:51;;;;;;;26.52;3.45;;;5.70;99.90;;;;;;5064239;28;20075;-75
2022/01/18 02:25:17;;;;;;;12.45;3.03;;;5.60;99.90;;;;;;5069572;28;20484;-75
2022/01/18 02:27:43;;;;;;;22.02;3.85;;;5.70;99.90;;;;;;5047397;28;20136;-75
2022/01/18 02:30:10;;;;;;;12.20;2.40;;;5.70;99.90;;;;;;5044385;28;20123;-75
2022/01/18 02:32:35;;;;;;;14.25;2.28;;;5.60;99.90;;;;;;5055779;28;20044;-79
2022/01/18 02:35:02;;;;;;;14.45;2.72;;;5.70;99.90;;;;;;5053610;28;20032;-79
2022/01/18 02:37:27;;;;;;;16.85;2.72;;;5.60;99.90;;;;;;5073661;28;20452;-79
2022/01/18 02:39:53;;;;;;;12.23;2.63;;;5.70;99.90;;;;;;5055962;28;20044;-80
2022/01/18 02:42:26;;;;;;;10.60;2.45;;;5.70;99.90;;;;;;5073459;28;20047;-80
2022/01/18 02:44:52;;;;;;;9.52;2.00;;;5.70;99.90;;;;;;5056634;28;20078;-80
2022/01/18 02:47:19;;;;;;;12.77;2.50;;;5.70;99.90;;;;;;5072899;28;20044;-80
2022/01/18 02:49:46;;;;;;;15.10;3.38;;;5.70;99.90;;;;;;5072584;28;20503;-81
2022/01/18 02:52:12;;;;;;;13.55;2.17;;;5.80;99.90;;;;;;5055888;28;20395;-80
2022/01/18 02:54:38;;;;;;;17.65;2.90;;;5.80;99.90;;;;;;5071754;28;20106;-80
2022/01/18 02:57:06;;;;;;;14.82;2.80;;;5.80;99.90;;;;;;5072417;28;20147;-81
2022/01/18 02:59:47;;;;;;;14.32;2.88;;;5.80;99.90;;;;;;5069346;28;20067;-80
2022/01/18 03:05:10;;;;;;;14.27;2.92;;;5.80;99.90;;;;;;5072757;28;20825;-80
2022/01/18 03:07:36;;;;;;;15.73;2.67;;;5.90;99.90;;;;;;5072539;28;20040;-79
2022/01/18 03:10:03;;;;;;;15.93;2.70;;;5.90;99.90;;;;;;5052703;28;20067;-80
2022/01/18 03:12:29;;;;;;;18.48;2.53;;;6.00;99.90;;;;;;5054968;28;20048;-80
2022/01/18 03:14:54;;;;;;;13.18;2.45;;;5.90;99.90;;;;;;5072176;28;20041;-79
2022/01/18 03:17:20;;;;;;;12.75;2.25;;;6.00;99.90;;;;;;5071523;28;20480;-80
2022/01/18 03:19:46;;;;;;;21.05;3.33;;;6.00;99.90;;;;;;5072366;28;20373;-80
2022/01/18 03:22:12;;;;;;;13.27;3.10;;;6.00;99.90;;;;;;5071646;28;20121;-80
2022/01/18 03:24:56;;;;;;;13.50;2.40;;;6.00;99.90;;;;;;5056085;28;20138;-80
2022/01/18 03:30:08;;;;;;;10.05;2.10;;;6.20;99.90;;;;;;5071937;28;20166;-80
2022/01/18 03:32:34;;;;;;;10.10;1.83;;;6.20;99.90;;;;;;5072035;28;20495;-80
2022/01/18 03:35:01;;;;;;;12.50;2.05;;;6.30;99.90;;;;;;5048609;28;20052;-80
2022/01/18 03:37:26;;;;;;;;;;;6.20;99.90;;;;;;5072311;28;20047;-80
2022/01/18 03:39:52;;;;;;;10.75;2.00;;;6.20;99.90;;;;;;5072341;28;20339;-80
2022/01/18 03:45:02;;;;;;;10.32;2.28;;;6.20;99.90;;;;;;5066125;28;20442;-81
2022/01/18 03:47:29;;;;;;;12.15;1.92;;;6.10;99.90;;;;;;5046116;28;20060;-80
2022/01/18 03:49:54;;;;;;;11.25;1.75;;;6.30;99.90;;;;;;5071200;28;20123;-81
2022/01/18 03:52:20;;;;;;;9.27;1.70;;;6.20;99.90;;;;;;5053060;28;20404;-81
2022/01/18 03:54:47;;;;;;;12.15;2.08;;;6.10;99.90;;;;;;5055058;28;20044;-81
2022/01/18 03:57:14;;;;;;;9.95;1.80;;;6.20;99.90;;;;;;5071723;28;20059;-81
2022/01/18 03:59:40;;;;;;;6.00;1.08;;;6.20;99.90;;;;;;5071370;28;20087;-80
2022/01/18 04:02:07;;;;;;;4.80;1.10;;;6.20;99.90;;;;;;5054915;28;20032;-81
2022/01/18 04:04:33;;;;;;;7.28;1.45;;;6.10;99.90;;;;;;5055506;28;20064;-79
2022/01/18 04:07:00;;;;;;;8.80;1.77;;;6.10;99.90;;;;;;5055088;28;20028;-80
2022/01/18 04:09:26;;;;;;;10.68;2.10;;;6.20;99.90;;;;;;5066028;28;20494;-75
2022/01/18 04:11:52;;;;;;;12.05;1.98;;;6.10;99.90;;;;;;5071153;28;20048;-75
2022/01/18 04:14:18;;;;;;;;;;;6.10;99.90;;;;;;5063454;28;20029;-75
2022/01/18 04:16:59;;;;;;;7.70;1.35;;;6.20;99.90;;;;;;5098415;28;20402;-75
2022/01/18 04:27:37;;;;;;;2.97;0.70;;;6.10;99.90;;;;;;5096139;28;20166;-75
2022/01/18 04:30:04;;;;;;;3.92;0.73;;;6.10;99.90;;;;;;5070595;28;20048;-75
2022/01/18 04:32:30;;;;;;;1.13;0.60;;;6.10;99.90;;;;;;5068310;28;20048;-75
2022/01/18 04:34:55;;;;;;;1.73;0.63;;;6.10;99.90;;;;;;5062549;28;20067;-75
2022/01/18 04:37:21;;;;;;;2.38;0.60;;;6.10;99.90;;;;;;5047378;28;20067;-75
2022/01/18 04:39:48;;;;;;;2.25;0.50;;;6.10;99.90;;;;;;5053151;28;20110;-75
2022/01/18 04:50:48;;;;;;;8.80;1.52;;;6.00;99.90;;;;;;5060178;28;20047;-75
2022/01/18 04:53:14;;;;;;;4.53;1.00;;;6.00;99.90;;;;;;5057740;28;20040;-79
2022/01/18 04:55:40;;;;;;;2.88;1.02;;;6.00;99.90;;;;;;5074859;28;20145;-79
2022/01/18 04:58:05;;;;;;;2.03;0.60;;;6.10;99.90;;;;;;5073553;28;20041;-79
2022/01/18 05:00:31;;;;;;;2.55;0.70;;;6.10;99.90;;;;;;5064688;28;20056;-79
2022/01/18 05:02:57;;;;;;;4.00;0.70;;;6.10;99.90;;;;;;5074575;28;20384;-80
2022/01/18 05:05:33;;;;;;;2.90;0.90;;;6.10;99.90;;;;;;5074217;28;20786;-76
2022/01/18 05:08:01;;;;;;;2.53;0.60;;;6.00;99.90;;;;;;5071459;28;20044;-81
2022/01/18 05:10:29;;;;;;;2.05;0.50;;;6.00;99.90;;;;;;5057810;28;20040;-81
2022/01/18 05:12:57;;;;;;;1.98;0.63;;;6.00;99.90;;;;;;5074383;28;20127;-81
2022/01/18 05:18:57;;;;;;;2.33;0.68;;;6.10;99.90;;;;;;5075424;28;20056;-82
2022/01/18 05:23:21;;;;;;;2.50;0.60;;;6.10;99.90;;;;;;5073998;28;20048;-82
2022/01/18 05:25:47;;;;;;;2.47;0.63;;;6.00;99.90;;;;;;5037189;28;20125;-81
2022/01/18 05:28:13;;;;;;;1.42;0.50;;;6.00;99.90;;;;;;5071106;28;20470;-82
2022/01/18 05:30:40;;;;;;;2.50;0.70;;;6.00;99.90;;;;;;5072922;28;20082;-81
2022/01/18 05:33:07;;;;;;;1.70;0.65;;;6.10;99.90;;;;;;5057230;28;20047;-82
2022/01/18 05:35:33;;;;;;;;;;;6.00;99.90;;;;;;5073733;28;20060;-81
2022/01/18 05:37:59;;;;;;;2.22;0.60;;;6.00;99.90;;;;;;5074456;28;20025;-81
2022/01/18 05:40:25;;;;;;;2.42;0.65;;;6.00;99.90;;;;;;5057426;28;20033;-81
2022/01/18 05:42:51;;;;;;;1.65;0.50;;;5.90;99.90;;;;;;5073492;28;20033;-78
2022/01/18 05:45:17;;;;;;;3.30;0.60;;;6.00;99.90;;;;;;5063154;28;20045;-79
2022/01/18 05:47:43;;;;;;;1.73;0.93;;;6.00;99.90;;;;;;5057553;28;20442;-79
2022/01/18 05:50:11;;;;;;;2.35;0.70;;;6.00;99.90;;;;;;5073179;28;20452;-79
2022/01/18 05:52:36;;;;;;;1.75;0.70;;;6.00;99.90;;;;;;5074004;28;20040;-79
2022/01/18 05:55:04;;;;;;;2.70;0.50;;;6.00;99.90;;;;;;5073744;28;20147;-79
2022/01/18 05:57:30;;;;;;;1.98;0.70;;;5.90;99.90;;;;;;5073126;28;20373;-79
2022/01/18 06:00:04;;;;;;;1.40;0.50;;;6.00;99.90;;;;;;5074303;28;20032;-78
2022/01/18 06:02:49;;;;;;;1.10;0.40;;;6.00;99.90;;;;;;5066656;28;20536;-79
2022/01/18 06:07:59;;;;;;;3.75;0.68;;;5.90;99.90;;;;;;5058167;28;20479;-78
2022/01/18 06:10:25;;;;;;;4.00;0.90;;;5.90;99.90;;;;;;5063204;28;20041;-79
2022/01/18 06:12:51;;;;;;;;;;;5.90;99.90;;;;;;5070373;28;20794;-78
2022/01/18 06:15:18;;;;;;;4.82;1.20;;;6.00;99.90;;;;;;5055083;28;19920;-79
2022/01/18 06:17:45;;;;;;;7.18;1.38;;;6.00;99.90;;;;;;5070421;28;20033;-78
2022/01/18 06:20:11;;;;;;;8.93;1.58;;;6.10;99.90;;;;;;5069138;28;20083;-80
2022/01/18 06:22:37;;;;;;;8.43;1.80;;;6.10;99.90;;;;;;5063308;28;20048;-79
2022/01/18 06:25:04;;;;;;;7.75;1.63;;;6.10;99.90;;;;;;5072329;28;20032;-79
2022/01/18 06:27:30;;;;;;;7.80;1.42;;;6.10;99.90;;;;;;5072690;28;20774;-79
2022/01/18 06:29:56;;;;;;;7.93;1.63;;;6.00;99.90;;;;;;5090496;28;20119;-78
2022/01/18 06:32:23;;;;;;;9.40;1.55;;;6.10;99.90;;;;;;5050540;28;20041;-79
2022/01/18 06:34:48;;;;;;;11.30;2.03;;;6.10;99.90;;;;;;5070165;28;20071;-79
2022/01/18 06:37:14;;;;;;;7.05;1.65;;;6.10;99.90;;;;;;5081529;28;20551;-79
2022/01/18 06:39:40;;;;;;;4.55;1.20;;;6.10;99.90;;;;;;5069882;28;20135;-79
2022/01/18 06:42:06;;;;;;;7.53;1.70;;;6.00;99.90;;;;;;5052616;28;20496;-79
2022/01/18 06:44:32;;;;;;;7.05;1.45;;;6.00;99.90;;;;;;5058314;28;20040;-80
2022/01/18 06:46:58;;;;;;;5.93;1.40;;;5.90;99.90;;;;;;5070293;28;20044;-76
2022/01/18 06:49:24;;;;;;;8.40;1.75;;;5.90;99.90;;;;;;5052084;28;20048;-76
2022/01/18 06:51:49;;;;;;;5.90;1.48;;;5.90;99.90;;;;;;5060597;28;20086;-76
2022/01/18 06:54:17;;;;;;;5.78;1.55;;;5.90;99.90;;;;;;5045093;28;20178;-74
2022/01/18 06:56:46;;;;;;;6.47;1.38;;;5.90;99.90;;;;;;5046238;28;20121;-75
2022/01/18 06:59:13;;;;;;;7.05;1.60;;;5.90;99.90;;;;;;5064137;28;20048;-75
2022/01/18 07:01:40;;;;;;;7.00;1.38;;;5.90;99.90;;;;;;5052843;28;20496;-73
2022/01/18 07:04:06;;;;;;;4.68;1.50;;;5.90;99.90;;;;;;5068469;28;20077;-72
2022/01/18 07:06:32;;;;;;;3.78;0.93;;;5.80;99.90;;;;;;5062489;28;20040;-74
2022/01/18 07:08:59;;;;;;;4.43;1.02;;;5.90;99.90;;;;;;5060342;28;20048;-80
2022/01/18 07:11:25;;;;;;;4.25;1.48;;;5.80;99.90;;;;;;5065730;28;20052;-80
2022/01/18 07:13:52;;;;;;;6.38;1.67;;;5.90;99.90;;;;;;5063512;28;20036;-80
2022/01/18 07:16:18;;;;;;;6.82;1.83;;;5.80;99.90;;;;;;5044068;28;20048;-82
2022/01/18 07:18:44;;;;;;;5.18;1.50;;;5.90;99.90;;;;;;5052190;28;20041;-80
2022/01/18 07:21:10;;;;;;;9.68;2.17;;;5.90;99.90;;;;;;5048327;28;20495;-87
2022/01/18 07:23:36;;;;;;;8.18;1.75;;;5.90;99.90;;;;;;5046255;28;20041;-85
2022/01/18 07:26:03;;;;;;;5.03;1.33;;;5.80;99.90;;;;;;5067849;28;20043;-85
2022/01/18 07:28:29;;;;;;;4.82;1.30;;;5.80;99.90;;;;;;5088858;28;20076;-85
2022/01/18 07:30:54;;;;;;;3.20;1.27;;;5.90;99.90;;;;;;5065824;28;20079;-85
2022/01/18 07:33:20;;;;;;;8.15;1.90;;;5.80;99.90;;;;;;5043325;28;20128;-74
2022/01/18 07:35:47;;;;;;;7.30;1.85;;;5.80;99.90;;;;;;5060046;28;20144;-75
2022/01/18 07:38:16;;;;;;;6.50;1.50;;;5.80;99.90;;;;;;5060549;28;20445;-76
2022/01/18 07:40:44;;;;;;;5.70;1.63;;;5.80;99.90;;;;;;5065567;28;20562;-76
2022/01/18 07:43:11;;;;;;;8.77;1.73;;;5.80;99.90;;;;;;5043430;28;20508;-76
2022/01/18 07:45:37;;;;;;;7.97;1.83;;;5.80;99.90;;;;;;5066361;28;20057;-78
2022/01/18 07:48:04;;;;;;;7.85;1.83;;;5.70;99.90;;;;;;5066227;28;20084;-78
2022/01/18 07:50:29;;;;;;;;;;;5.60;99.90;;;;;;5044571;28;20090;-78
2022/01/18 07:52:56;;;;;;;6.22;1.42;;;5.70;99.90;;;;;;5050082;28;19950;-78
2022/01/18 07:55:22;;;;;;;7.13;1.77;;;5.60;99.90;;;;;;5050013;28;20115;-78
2022/01/18 07:57:48;;;;;;;3.88;1.42;;;5.50;99.90;;;;;;5082117;28;20158;-78
2022/01/18 08:00:16;;;;;;;2.47;1.10;;;5.50;99.90;;;;;;5068350;28;20068;-74
2022/01/18 08:02:42;;;;;;;2.58;0.80;;;5.50;99.90;;;;;;5070458;28;20033;-74
2022/01/18 08:05:09;;;;;;;4.53;1.42;;;5.30;99.90;;;;;;5059555;28;20523;-74
2022/01/18 08:07:36;;;;;;;4.22;1.27;;;5.40;99.90;;;;;;5065019;28;20042;-73
2022/01/18 08:10:06;;;;;;;4.82;1.30;;;5.30;99.90;;;;;;5063853;28;20144;-74
2022/01/18 08:12:32;;;;;;;3.28;1.50;;;5.30;99.90;;;;;;5063968;28;20055;-73
2022/01/18 08:15:03;;;;;;;4.85;1.30;;;5.20;99.90;;;;;;5076263;28;20041;-74
2022/01/18 08:17:29;;;;;;;5.53;1.58;;;5.30;99.90;;;;;;5049520;28;20076;-74
2022/01/18 08:19:55;;;;;;;4.38;1.25;;;5.30;99.90;;;;;;5060120;28;20449;-74
2022/01/18 08:22:21;;;;;;;2.42;1.30;;;5.30;99.90;;;;;;5064802;28;20112;-79
2022/01/18 08:24:47;;;;;;;4.30;1.83;;;5.30;99.90;;;;;;5061577;28;20484;-78
2022/01/18 08:27:13;;;;;;;4.47;1.50;;;5.20;99.90;;;;;;5066559;28;20037;-74
2022/01/18 08:29:38;;;;;;;5.80;1.60;;;5.20;99.90;;;;;;5046406;28;20186;-74
2022/01/18 08:32:06;;;;;;;8.35;2.10;;;5.30;99.90;;;;;;5045095;28;20047;-73
2022/01/18 08:34:33;;;;;;;6.88;2.08;;;5.40;99.90;;;;;;5060221;28;20032;-73
2022/01/18 08:36:58;;;;;;;;;;;5.30;99.90;;;;;;5062040;28;20547;-72
2022/01/18 08:39:24;;;;;;;4.78;1.90;;;5.50;99.90;;;;;;5062311;28;20007;-77
2022/01/18 08:41:50;;;;;;;4.68;1.90;;;5.50;99.90;;;;;;5062509;28;20036;-76
2022/01/18 08:44:16;;;;;;;7.18;2.17;;;5.50;99.90;;;;;;5059812;28;20474;-76
2022/01/18 08:46:43;;;;;;;9.52;1.90;;;5.60;99.90;;;;;;5100630;28;20052;-76
2022/01/18 08:49:08;;;;;;;;;;;5.50;99.90;;;;;;5057039;28;20109;-77
2022/01/18 08:51:35;;;;;;;7.97;2.17;;;5.70;99.90;;;;;;5049325;28;19924;-77
2022/01/18 08:54:03;;;;;;;7.25;2.20;;;5.60;99.90;;;;;;5056498;28;20040;-77
2022/01/18 08:56:30;;;;;;;5.32;2.10;;;5.70;99.90;;;;;;5076130;28;20052;-82
2022/01/18 08:58:57;;;;;;;10.73;2.65;;;5.80;99.90;;;;;;5073398;28;20052;-81
2022/01/18 09:01:23;;;;;;;7.60;2.33;;;5.80;99.90;;;;;;5073613;28;20472;-80
2022/01/18 09:03:52;;;;;;;11.10;2.60;;;5.80;99.90;;;;;;5065542;28;20190;-81
2022/01/18 09:06:19;;;;;;;13.63;2.55;;;5.90;99.90;;;;;;5067717;28;20043;-81
2022/01/18 09:08:54;;;;;;;11.90;3.20;;;6.00;99.90;;;;;;5073104;28;20124;-81
2022/01/18 09:11:20;;;;;;;7.38;2.15;;;6.10;99.90;;;;;;5064937;28;20420;-83
2022/01/18 09:13:46;;;;;;;9.93;2.38;;;6.00;99.90;;;;;;5067631;28;20044;-79
2022/01/18 09:16:12;;;;;;;9.07;2.05;;;6.10;99.90;;;;;;5064402;28;20053;-81
2022/01/18 09:18:38;;;;;;;14.93;2.90;;;6.10;99.90;;;;;;5051248;28;20052;-80
2022/01/18 09:21:04;;;;;;;11.80;2.33;;;6.20;99.90;;;;;;5067014;28;20051;-80
2022/01/18 09:23:31;;;;;;;9.85;2.63;;;6.30;99.90;;;;;;5065265;28;20057;-80
2022/01/18 09:25:57;;;;;;;8.75;2.38;;;6.40;99.90;;;;;;5062712;28;20059;-80
2022/01/18 09:28:23;;;;;;;11.48;2.67;;;6.40;99.90;;;;;;5082186;28;20036;-79
2022/01/18 09:30:49;;;;;;;10.18;2.72;;;6.50;99.90;;;;;;5067609;28;20045;-82
2022/01/18 09:33:14;;;;;;;11.55;2.88;;;6.50;99.90;;;;;;5073706;28;20040;-80
2022/01/18 09:35:41;;;;;;;12.30;2.58;;;6.50;99.90;;;;;;5053801;28;20049;-79
2022/01/18 09:38:07;;;;;;;10.07;2.90;;;6.60;99.90;;;;;;5058544;28;20068;-79
2022/01/18 09:40:37;;;;;;;8.75;2.53;;;6.50;99.90;;;;;;5066999;28;20040;-79
2022/01/18 09:43:09;;;;;;;11.32;3.40;;;6.60;99.90;;;;;;5067041;28;20067;-79
2022/01/18 09:45:35;;;;;;;11.00;2.83;;;6.60;99.90;;;;;;5063589;28;20053;-80
2022/01/18 09:48:02;;;;;;;;;;;6.70;99.90;;;;;;5057711;28;20072;-81
2022/01/18 09:50:31;;;;;;;11.70;3.55;;;6.60;99.90;;;;;;5090764;28;20356;-82
2022/01/18 09:52:58;;;;;;;10.98;3.90;;;6.60;99.90;;;;;;5045406;28;20047;-79
2022/01/18 09:55:26;;;;;;;10.35;3.65;;;6.70;99.90;;;;;;5061628;28;20512;-78
2022/01/18 09:57:53;;;;;;;10.45;4.38;;;6.70;99.90;;;;;;5064073;28;20055;-79
2022/01/18 10:00:20;;;;;;;9.52;3.83;;;6.70;99.90;;;;;;5065113;28;20116;-77
2022/01/18 10:02:47;;;;;;;14.40;4.30;;;6.80;99.90;;;;;;5076550;28;20550;-77
2022/01/18 10:05:32;;;;;;;12.20;3.88;;;6.80;99.90;;;;;;5065309;28;20479;-78
2022/01/18 10:08:07;;;;;;;14.32;4.30;;;6.70;99.90;;;;;;5064570;28;20044;-79
2022/01/18 10:10:41;;;;;;;13.98;4.00;;;6.80;99.90;;;;;;5058161;28;20388;-78
2022/01/18 10:13:08;;;;;;;10.20;3.45;;;6.80;99.90;;;;;;5064992;28;20170;-78
2022/01/18 10:15:34;;;;;;;10.82;3.65;;;6.80;99.90;;;;;;5069944;28;20446;-79
2022/01/18 10:18:09;;;;;;;7.78;3.65;;;6.90;99.90;;;;;;5047248;28;20037;-78
2022/01/18 10:20:52;;;;;;;14.52;4.18;;;7.00;99.90;;;;;;5076039;28;20036;-79
2022/01/18 10:23:23;;;;;;;14.63;4.03;;;7.00;99.90;;;;;;5065882;28;20060;-79
2022/01/18 10:25:50;;;;;;;10.80;3.28;;;7.00;99.90;;;;;;5070561;28;20102;-79
2022/01/18 10:28:34;;;;;;;7.85;2.83;;;7.00;99.90;;;;;;5064681;28;20067;-79
2022/01/18 10:31:06;;;;;;;12.88;3.05;;;7.10;99.90;;;;;;5037708;28;20047;-78
2022/01/18 10:33:38;;;;;;;11.15;2.70;;;7.00;99.90;;;;;;5047850;28;20084;-77
2022/01/18 10:36:14;;;;;;;10.40;2.47;;;7.00;99.90;;;;;;5066005;28;20115;-78
2022/01/18 10:38:43;;;;;;;7.80;2.50;;;7.00;99.90;;;;;;5047903;28;20043;-77
2022/01/18 10:41:30;;;;;;;13.38;3.40;;;7.00;99.90;;;;;;5063998;28;20487;-77
2022/01/18 10:44:09;;;;;;;11.82;3.20;;;7.00;99.90;;;;;;5058963;28;20380;-75
2022/01/18 10:46:39;;;;;;;12.82;3.03;;;7.00;99.90;;;;;;5062038;28;20064;-77
2022/01/18 10:49:06;;;;;;;12.80;3.60;;;7.00;99.90;;;;;;5055679;28;20123;-76
2022/01/18 10:51:35;;;;;;;12.40;2.95;;;6.90;99.90;;;;;;5045619;28;20033;-76
2022/01/18 10:54:04;;;;;;;12.48;3.25;;;6.90;99.90;;;;;;5091338;28;20045;-75
2022/01/18 10:56:44;;;;;;;11.27;3.30;;;6.90;99.90;;;;;;5058050;28;20078;-76
2022/01/18 10:59:22;;;;;;;13.75;4.68;;;6.90;99.90;;;;;;5060029;28;20056;-78
2022/01/18 11:02:13;;;;;;;9.90;3.08;;;6.90;99.90;;;;;;5041293;28;20610;-77
2022/01/18 11:04:52;;;;;;;9.13;2.63;;;6.90;99.90;;;;;;5045548;28;20036;-76
2022/01/18 11:07:28;;;;;;;10.85;3.30;;;6.90;99.90;;;;;;5041226;28;20032;-78
2022/01/18 11:10:00;;;;;;;9.90;2.97;;;6.90;99.90;;;;;;5075897;28;20051;-77
2022/01/18 11:12:30;;;;;;;6.97;2.72;;;6.90;99.90;;;;;;5061913;28;20041;-78
2022/01/18 11:15:07;;;;;;;10.35;2.70;;;7.00;99.90;;;;;;5060466;28;20096;-78
2022/01/18 11:17:39;;;;;;;10.68;2.50;;;7.00;99.90;;;;;;5065145;28;20047;-76
2022/01/18 11:20:06;;;;;;;8.32;2.72;;;7.00;99.90;;;;;;5059966;28;20098;-77
2022/01/18 11:22:33;;;;;;;10.65;2.63;;;7.00;99.90;;;;;;5061304;28;20047;-77
2022/01/18 11:25:02;;;;;;;6.40;2.38;;;7.00;99.90;;;;;;5051001;28;20538;-77
2022/01/18 11:27:34;;;;;;;12.85;2.72;;;7.00;99.90;;;;;;5068060;28;20042;-78
2022/01/18 11:30:01;;;;;;;6.68;2.33;;;7.00;99.90;;;;;;5066588;28;20123;-77
2022/01/18 11:32:31;;;;;;;7.47;2.25;;;7.00;99.90;;;;;;5042150;28;20048;-76
2022/01/18 11:35:19;;;;;;;5.38;2.00;;;7.00;99.90;;;;;;5088148;28;20051;-78
2022/01/18 11:38:11;;;;;;;7.63;2.10;;;7.00;99.90;;;;;;5046033;28;20414;-78
2022/01/18 11:40:55;;;;;;;7.93;2.22;;;7.10;99.90;;;;;;5064942;28;20040;-77
2022/01/18 11:43:47;;;;;;;7.15;1.95;;;7.10;99.90;;;;;;5060182;28;20127;-78
2022/01/18 11:46:34;;;;;;;9.43;2.40;;;7.00;99.90;;;;;;5066144;28;20084;-78
2022/01/18 11:49:06;;;;;;;7.85;2.17;;;7.00;99.90;;;;;;5060951;28;20398;-77
2022/01/18 11:51:52;;;;;;;6.50;2.15;;;7.00;99.90;;;;;;5072658;28;20070;-77
2022/01/18 11:57:23;;;;;;;5.60;2.00;;;7.10;99.90;;;;;;5064835;28;20059;-76
2022/01/18 11:59:55;;;;;;;8.38;2.90;;;7.00;99.90;;;;;;5046924;28;20045;-77
2022/01/18 12:02:42;;;;;;;8.48;2.40;;;7.00;99.90;;;;;;5053101;28;20051;-78
2022/01/18 12:05:20;;;;;;;8.55;2.88;;;6.90;99.90;;;;;;5088404;28;20045;-76
2022/01/18 12:07:49;;;;;;;8.98;2.55;;;6.80;99.90;;;;;;5038566;28;20040;-77
2022/01/18 12:10:30;;;;;;;9.82;2.47;;;6.80;99.90;;;;;;5065256;28;20380;-78
2022/01/18 12:13:10;;;;;;;8.70;2.97;;;6.80;99.90;;;;;;5061585;28;20121;-77
2022/01/18 12:15:38;;;;;;;6.80;2.50;;;6.90;99.90;;;;;;5068719;28;20053;-79
2022/01/18 12:18:22;;;;;;;10.70;2.80;;;6.90;99.90;;;;;;5066053;28;20097;-80
2022/01/18 12:20:53;;;;;;;8.75;2.72;;;6.90;99.90;;;;;;5049599;28;20040;-78
2022/01/18 12:23:21;;;;;;;9.98;3.05;;;6.90;99.90;;;;;;5062204;28;20040;-78
2022/01/18 12:26:00;;;;;;;10.35;3.33;;;7.00;99.90;;;;;;5047806;28;20364;-77
2022/01/18 12:34:28;;;;;;;10.25;3.45;;;6.90;99.90;;;;;;5096910;28;20044;-78
2022/01/18 12:36:56;;;;;;;17.52;4.45;;;6.90;99.90;;;;;;5094479;28;20193;-78
2022/01/18 12:39:23;;;;;;;12.90;4.07;;;6.90;99.90;;;;;;5095204;28;20039;-78
2022/01/18 12:41:54;;;;;;;11.27;4.30;;;6.80;99.90;;;;;;5048833;28;20093;-78
2022/01/18 12:44:22;;;;;;;13.77;4.93;;;6.80;99.90;;;;;;5065896;28;20629;-78
2022/01/18 12:46:52;;;;;;;14.18;4.72;;;6.80;99.90;;;;;;5071448;28;20059;-78
2022/01/18 12:49:18;;;;;;;11.40;4.32;;;6.80;99.90;;;;;;5062691;28;20072;-77
2022/01/18 12:51:44;;;;;;;11.95;4.70;;;6.80;99.90;;;;;;5044583;28;20083;-77
2022/01/18 12:54:10;;;;;;;12.73;3.95;;;6.90;99.90;;;;;;5067255;28;20317;-77
2022/01/18 12:56:36;;;;;;;14.68;5.13;;;6.90;99.90;;;;;;5061628;28;20036;-77
2022/01/18 12:59:04;;;;;;;13.27;4.70;;;6.90;99.90;;;;;;5063364;28;20037;-78
2022/01/18 13:01:31;;;;;;;12.23;4.22;;;6.90;99.90;;;;;;5063560;28;20145;-76
2022/01/18 13:03:57;;;;;;;14.07;4.47;;;6.90;99.90;;;;;;5065384;28;20506;-77
2022/01/18 13:06:32;;;;;;;9.93;3.42;;;6.90;99.90;;;;;;5045987;28;20032;-77
2022/01/18 13:09:00;;;;;;;9.95;4.28;;;7.00;99.90;;;;;;5066730;28;20049;-77
2022/01/18 13:11:29;;;;;;;15.30;4.80;;;7.00;99.90;;;;;;5063637;28;20561;-77
2022/01/18 13:14:02;;;;;;;10.90;4.30;;;7.00;99.90;;;;;;5095502;28;20036;-77
2022/01/18 13:27:20;;;;;;;12.52;4.72;;;7.20;99.90;;;;;;5095359;28;20122;-78
2022/01/18 13:29:48;;;;;;;14.45;4.97;;;7.20;99.90;;;;;;5063730;28;20044;-78
2022/01/18 13:32:18;;;;;;;14.90;5.10;;;7.20;99.90;;;;;;5074279;28;20080;-77
2022/01/18 13:34:49;;;;;;;13.35;4.85;;;7.30;99.90;;;;;;5067920;28;20048;-81
2022/01/18 13:37:19;;;;;;;13.80;5.53;;;7.20;99.90;;;;;;5078565;28;20045;-81
2022/01/18 13:39:54;;;;;;;12.10;5.45;;;7.20;99.90;;;;;;5068144;28;20139;-78
2022/01/18 13:42:28;;;;;;;16.05;5.00;;;7.10;99.90;;;;;;5045777;28;20037;-78
2022/01/18 13:45:11;;;;;;;11.25;4.93;;;7.20;99.90;;;;;;5069570;28;20079;-78
2022/01/18 13:47:44;;;;;;;9.65;3.97;;;7.20;99.90;;;;;;5068365;28;20106;-78
2022/01/18 13:50:30;;;;;;;14.20;4.22;;;7.20;99.90;;;;;;5069325;28;20056;-78
2022/01/18 13:53:01;;;;;;;15.83;5.40;;;7.20;99.90;;;;;;5065831;28;20434;-78
2022/01/18 13:55:29;;;;;;;15.75;6.10;;;7.20;99.90;;;;;;5094788;28;20385;-78
2022/01/18 13:57:57;;;;;;;14.80;5.30;;;7.20;99.90;;;;;;5067854;28;20463;-79
2022/01/18 14:00:25;;;;;;;14.40;5.60;;;7.20;99.90;;;;;;5067761;28;20036;-78
2022/01/18 14:02:51;;;;;;;13.50;5.10;;;7.20;99.90;;;;;;5048465;28;20078;-78
2022/01/18 14:05:20;;;;;;;15.07;5.53;;;7.10;99.90;;;;;;5068137;28;20056;-78
2022/01/18 14:07:47;;;;;;;13.48;5.38;;;7.20;99.90;;;;;;5068720;28;20044;-77
2022/01/18 14:10:13;;;;;;;20.15;6.22;;;7.10;99.90;;;;;;5026867;28;20052;-77
2022/01/18 14:12:38;;;;;;;12.90;5.20;;;7.10;99.90;;;;;;5069954;28;20135;-77
2022/01/18 14:15:05;;;;;;;16.92;5.25;;;7.00;99.90;;;;;;5050717;28;20102;-78
2022/01/18 14:17:30;;;;;;;17.65;5.30;;;7.00;99.90;;;;;;5059719;28;20468;-78
2022/01/18 14:20:08;;;;;;;13.52;5.55;;;7.00;99.90;;;;;;5053139;28;20071;-78
2022/01/18 14:22:38;;;;;;;14.27;5.20;;;7.00;99.90;;;;;;5093080;28;20493;-78
2022/01/18 14:25:07;;;;;;;16.30;5.68;;;6.90;99.90;;;;;;5036235;28;20120;-78
2022/01/18 14:27:42;;;;;;;15.48;5.25;;;6.90;99.90;;;;;;5060193;28;20037;-78
2022/01/18 14:30:11;;;;;;;10.82;4.85;;;6.90;99.90;;;;;;5064022;28;20046;-78
2022/01/18 14:32:42;;;;;;;12.75;4.60;;;6.90;99.90;;;;;;5060280;28;20033;-78
2022/01/18 14:35:16;;;;;;;10.45;4.30;;;6.80;99.90;;;;;;5064775;28;20441;-78
2022/01/18 14:37:49;;;;;;;10.35;4.78;;;6.70;99.90;;;;;;5056247;28;20033;-78